Time;durP1;ratioP1;P1;durP2;ratioP2;P2;SDS_P1;SDS_P2;PMS_P1;PMS_P2;Temp;Humidity;BMP_temperature;BMP_pressure;BME280_temperature;BME280_humidity;BME280_pressure;Samples;Min_cycle;Max_cycle;Signal;HPM_P1;HPM_P2
2022/01/14 00:02:43;;;;;;;36.35;19.27;;;;;;;2.61;100.00;99726.87;2171052;81;20974;-88
2022/01/14 00:05:44;;;;;;;29.23;18.65;;;;;;;2.56;100.00;99714.25;2171293;81;21021;-88
2022/01/14 00:08:45;;;;;;;33.18;18.00;;;;;;;2.56;100.00;99729.33;2171575;82;20990;-89
2022/01/14 00:11:49;;;;;;;35.20;19.37;;;;;;;2.55;100.00;99735.40;2171435;81;21022;-89
2022/01/14 00:15:01;;;;;;;36.83;21.02;;;;;;;2.59;100.00;99744.27;2171225;81;21488;-88
2022/01/14 00:18:00;;;;;;;31.12;17.85;;;;;;;2.60;100.00;99722.64;2171033;81;21045;-87
2022/01/14 00:21:01;;;;;;;35.10;20.45;;;;;;;2.58;100.00;99718.05;2171104;81;21010;-88
2022/01/14 00:24:12;;;;;;;37.10;20.43;;;;;;;2.56;100.00;99717.69;2171285;81;21032;-88
2022/01/14 00:33:49;;;;;;;33.45;18.52;;;;;;;2.53;100.00;99715.29;2171575;82;21094;-89
2022/01/14 00:36:50;;;;;;;41.20;21.42;;;;;;;2.51;100.00;99700.83;2171118;81;21073;-88
2022/01/14 00:39:50;;;;;;;33.00;16.37;;;;;;;2.50;100.00;99714.69;2171308;82;22026;-89
2022/01/14 00:42:51;;;;;;;28.65;18.15;;;;;;;2.49;100.00;99714.33;2171182;81;21045;-87
2022/01/14 00:45:53;;;;;;;36.00;19.67;;;;;;;2.47;100.00;99720.90;2171318;81;21019;-88
2022/01/14 00:48:53;;;;;;;37.83;21.52;;;;;;;2.51;100.00;99700.83;2171338;81;21066;-87
2022/01/14 00:51:54;;;;;;;30.88;17.75;;;;;;;2.49;100.00;99702.22;2171207;81;20963;-87
2022/01/14 00:54:55;;;;;;;34.40;20.10;;;;;;;2.52;100.00;99708.94;2171408;81;21129;-88
2022/01/14 01:00:59;;;;;;;34.23;18.57;;;;;;;2.52;100.00;99733.50;2178036;81;21350;-88
2022/01/14 01:04:00;;;;;;;29.98;15.85;;;;;;;2.51;100.00;99731.38;2187699;81;21535;-88
2022/01/14 01:07:01;;;;;;;30.37;17.55;;;;;;;2.51;100.00;99730.09;2187827;81;20961;-88
2022/01/14 01:10:04;;;;;;;38.10;19.27;;;;;;;2.52;100.00;99713.64;2187888;81;21000;-89
2022/01/14 01:13:14;;;;;;;33.33;18.85;;;;;;;2.53;100.00;99714.00;2187931;81;21597;-88
2022/01/14 01:16:07;;;;;;;29.20;17.70;;;;;;;2.52;100.00;99720.57;2187130;81;21094;-87
2022/01/14 01:19:07;;;;;;;34.67;20.08;;;;;;;2.55;100.00;99720.36;2187855;81;21096;-87
2022/01/14 01:22:08;;;;;;;36.42;19.45;;;;;;;2.53;100.00;99701.07;2187892;81;20985;-88
2022/01/14 01:25:10;;;;;;;28.50;16.32;;;;;;;2.53;100.00;99705.42;2187794;81;21068;-87
2022/01/14 01:28:11;;;;;;;30.15;17.87;;;;;;;2.54;100.00;99699.31;2187727;81;21040;-88
2022/01/14 01:31:35;;;;;;;36.30;18.67;;;;;;;2.52;100.00;99690.38;2187805;81;20993;-87
2022/01/14 01:34:14;;;;;;;27.82;17.30;;;;;;;2.54;100.00;99682.04;2185274;81;21529;-87
2022/01/14 01:37:15;;;;;;;25.97;15.50;;;;;;;2.51;100.00;99648.65;2187891;81;21040;-87
2022/01/14 01:40:16;;;;;;;26.93;15.38;;;;;;;2.52;100.00;99646.42;2187813;81;20938;-88
2022/01/14 01:43:17;;;;;;;28.12;16.40;;;;;;;2.52;100.00;99638.66;2187752;81;21004;-88
2022/01/14 01:46:19;;;;;;;23.38;15.88;;;;;;;2.57;100.00;99630.61;2188007;81;21508;-88
2022/01/14 01:49:20;;;;;;;29.35;16.87;;;;;;;2.59;100.00;99634.38;2187345;81;21044;-88
2022/01/14 01:52:21;;;;;;;29.05;16.57;;;;;;;2.58;100.00;99632.72;2187804;81;21005;-88
2022/01/14 01:55:22;;;;;;;28.40;17.55;;;;;;;2.59;100.00;99620.15;2187864;81;20997;-88
2022/01/14 01:58:22;;;;;;;30.27;16.70;;;;;;;2.57;100.00;99615.09;2187684;81;21101;-87
2022/01/14 02:01:23;;;;;;;28.87;16.65;;;;;;;2.60;100.00;99620.50;2187468;81;21080;-88
2022/01/14 02:04:24;;;;;;;29.15;18.50;;;;;;;2.60;100.00;99617.92;2187956;81;21524;-88
2022/01/14 02:07:25;;;;;;;29.07;17.10;;;;;;;2.62;100.00;99620.75;2187713;81;21052;-88
2022/01/14 02:10:26;;;;;;;29.98;17.98;;;;;;;2.64;100.00;99612.87;2187666;81;21540;-88
2022/01/14 02:13:27;;;;;;;28.20;17.92;;;;;;;2.63;100.00;99619.81;2187688;81;21042;-88
2022/01/14 02:16:34;;;;;;;33.13;17.17;;;;;;;2.66;100.00;99616.21;2187705;81;21572;-87
2022/01/14 02:19:42;;;;;;;27.22;15.75;;;;;;;2.67;100.00;99608.34;2187856;81;21085;-88
2022/01/14 02:22:36;;;;;;;29.72;17.98;;;;;;;2.66;100.00;99614.45;2186624;81;21093;-87
2022/01/14 02:25:37;;;;;;;23.92;15.08;;;;;;;2.66;100.00;99606.69;2187801;81;21049;-87
2022/01/14 02:28:38;;;;;;;34.33;18.87;;;;;;;2.65;100.00;99606.33;2187807;81;21046;-87
2022/01/14 02:31:39;;;;;;;35.40;19.05;;;;;;;2.66;100.00;99613.16;2187745;81;21485;-87
2022/01/14 02:34:39;;;;;;;32.93;18.90;;;;;;;2.66;100.00;99591.64;2187698;81;21065;-87
2022/01/14 02:37:40;;;;;;;27.60;17.25;;;;;;;2.69;100.00;99589.66;2187555;81;21041;-88
2022/01/14 02:40:41;;;;;;;32.70;17.75;;;;;;;2.65;100.00;99581.77;2188029;81;21548;-87
2022/01/14 02:43:42;;;;;;;35.28;18.30;;;;;;;2.63;100.00;99585.38;2187686;81;20954;-87
2022/01/14 02:46:51;;;;;;;34.98;19.92;;;;;;;2.59;100.00;99575.73;2187766;81;21632;-87
2022/01/14 02:49:45;;;;;;;30.05;17.10;;;;;;;2.58;100.00;99578.42;2186769;81;21560;-86
2022/01/14 02:55:53;;;;;;;31.27;16.80;;;;;;;2.55;100.00;99554.41;2187904;81;21085;-86
2022/01/14 02:58:53;;;;;;;24.90;14.35;;;;;;;2.55;100.00;99563.93;2187572;81;21117;-87
2022/01/14 03:01:54;;;;;;;28.52;15.88;;;;;;;2.52;100.00;99559.81;2178508;81;20991;-87
2022/01/14 03:04:55;;;;;;;38.83;21.65;;;;;;;2.50;100.00;99558.27;2171113;81;20982;-88
2022/01/14 03:07:56;;;;;;;39.13;20.55;;;;;;;2.49;100.00;99540.64;2171031;81;21556;-87
2022/01/14 03:10:56;;;;;;;38.00;22.00;;;;;;;2.50;100.00;99548.75;2171211;81;20994;-87
2022/01/14 03:13:57;;;;;;;34.83;20.65;;;;;;;2.50;100.00;99546.17;2171106;81;20982;-87
2022/01/14 03:16:59;;;;;;;38.60;20.32;;;;;;;2.50;100.00;99547.47;2171159;81;20989;-88
2022/01/14 03:20:02;;;;;;;34.78;18.77;;;;;;;2.49;100.00;99543.23;2171084;81;20986;-87
2022/01/14 03:23:05;;;;;;;39.42;20.97;;;;;;;2.47;100.00;99537.34;2171220;81;20986;-88
2022/01/14 03:26:05;;;;;;;39.38;21.30;;;;;;;2.46;100.00;99523.22;2171231;81;21073;-88
2022/01/14 03:29:06;;;;;;;37.78;21.10;;;;;;;2.44;100.00;99523.33;2171144;81;20978;-88
2022/01/14 03:32:06;;;;;;;39.08;20.05;;;;;;;2.42;100.00;99515.33;2171162;81;20966;-88
2022/01/14 03:35:07;;;;;;;44.58;22.93;;;;;;;2.43;100.00;99498.88;2171297;81;21044;-87
2022/01/14 03:38:08;;;;;;;49.98;24.27;;;;;;;2.42;100.00;99516.62;2171402;81;21105;-88
2022/01/14 03:41:09;;;;;;;46.58;24.45;;;;;;;2.44;100.00;99515.57;2171475;81;21055;-88
2022/01/14 03:44:10;;;;;;;41.23;22.67;;;;;;;2.47;100.00;99515.38;2171333;81;20978;-88
2022/01/14 03:47:10;;;;;;;42.67;22.30;;;;;;;2.48;100.00;99524.78;2171354;81;21046;-88
2022/01/14 03:50:11;;;;;;;43.33;22.52;;;;;;;2.47;100.00;99505.47;2171480;81;21014;-88
2022/01/14 03:53:12;;;;;;;46.90;23.50;;;;;;;2.46;100.00;99504.65;2171358;81;21028;-87
2022/01/14 03:56:13;;;;;;;37.65;20.72;;;;;;;2.49;100.00;99503.16;2171343;82;21049;-87
2022/01/14 03:59:14;;;;;;;43.10;23.27;;;;;;;2.49;100.00;99493.29;2171362;81;21022;-87
2022/01/14 04:02:15;;;;;;;41.02;24.52;;;;;;;2.48;100.00;99497.63;2180361;81;21108;-87
2022/01/14 04:05:15;;;;;;;44.13;22.82;;;;;;;2.48;100.00;99499.39;2187550;81;21062;-87
2022/01/14 04:08:16;;;;;;;48.28;23.75;;;;;;;2.48;100.00;99500.69;2188079;81;21511;-87
2022/01/14 04:11:17;;;;;;;42.20;21.45;;;;;;;2.49;100.00;99477.77;2187857;81;21004;-87
2022/01/14 04:17:20;;;;;;;37.93;21.75;;;;;;;2.49;100.00;99487.65;2096002;85;21116;-87
2022/01/14 04:20:21;;;;;;;41.53;23.83;;;;;;;2.48;100.00;99480.83;2095950;85;21103;-87
2022/01/14 04:23:24;;;;;;;45.23;22.70;;;;;;;2.51;100.00;99483.66;2095911;85;21084;-87
2022/01/14 04:26:25;;;;;;;40.17;20.90;;;;;;;2.51;100.00;99471.55;2095961;85;21643;-87
2022/01/14 04:29:26;;;;;;;39.78;20.80;;;;;;;2.49;100.00;99481.19;2095708;85;21029;-87
2022/01/14 04:32:26;;;;;;;39.48;22.32;;;;;;;2.50;100.00;99466.03;2095745;85;21012;-87
2022/01/14 04:35:27;;;;;;;42.88;22.22;;;;;;;2.52;100.00;99465.91;2095861;85;21131;-87
2022/01/14 04:38:28;;;;;;;38.48;22.27;;;;;;;2.52;100.00;99465.44;2095830;85;21001;-88
2022/01/14 04:41:29;;;;;;;42.05;21.52;;;;;;;2.54;100.00;99453.70;2095725;85;21032;-87
2022/01/14 04:44:30;;;;;;;42.30;24.65;;;;;;;2.52;100.00;99451.70;2095706;85;21572;-87
2022/01/14 04:47:34;;;;;;;39.65;23.40;;;;;;;2.52;100.00;99465.91;2095766;85;21131;-87
2022/01/14 04:50:33;;;;;;;40.80;22.55;;;;;;;2.53;100.00;99466.27;2095569;85;21148;-87
2022/01/14 04:53:34;;;;;;;41.08;21.70;;;;;;;2.55;100.00;99456.16;2112695;81;20950;-87
2022/01/14 04:56:35;;;;;;;39.10;21.35;;;;;;;2.52;100.00;99443.94;2187901;81;21568;-87
2022/01/14 04:59:36;;;;;;;42.73;23.30;;;;;;;2.52;100.00;99442.64;2187703;81;21495;-87
2022/01/14 05:02:37;;;;;;;38.30;22.73;;;;;;;2.54;100.00;99439.00;2177227;81;21058;-87
2022/01/14 05:05:41;;;;;;;41.25;21.90;;;;;;;2.52;100.00;99423.26;2171193;81;21013;-86
2022/01/14 05:08:40;;;;;;;40.73;23.38;;;;;;;2.53;100.00;99419.27;2171219;81;20994;-87
2022/01/14 05:11:51;;;;;;;39.20;23.55;;;;;;;2.55;100.00;99418.67;2171367;81;21577;-87
2022/01/14 05:14:44;;;;;;;27.90;18.23;;;;;;;2.55;100.00;99399.75;2170497;81;21553;-87
2022/01/14 05:17:45;;;;;;;30.68;19.27;;;;;;;2.52;100.00;99416.32;2171289;82;21006;-85
2022/01/14 05:20:45;;;;;;;39.27;23.75;;;;;;;2.49;100.00;99423.02;2171390;81;21500;-87
2022/01/14 05:23:46;;;;;;;33.80;20.52;;;;;;;2.49;100.00;99434.66;2171307;81;21002;-86
2022/01/14 05:26:47;;;;;;;32.23;20.32;;;;;;;2.50;100.00;99423.38;2171501;81;21100;-85
2022/01/14 05:29:48;;;;;;;33.80;19.82;;;;;;;2.49;100.00;99439.00;2171429;81;20959;-83
2022/01/14 05:32:49;;;;;;;33.63;19.82;;;;;;;2.48;100.00;99445.11;2171293;81;21021;-83
2022/01/14 05:35:49;;;;;;;31.87;18.52;;;;;;;2.47;100.00;99442.99;2171313;82;21616;-84
2022/01/14 05:38:50;;;;;;;35.05;21.30;;;;;;;2.44;100.00;99429.45;2171200;81;20946;-86
2022/01/14 05:41:51;;;;;;;30.08;18.60;;;;;;;2.40;100.00;99451.30;2171357;81;21066;-83
2022/01/14 05:44:52;;;;;;;36.93;22.15;;;;;;;2.38;100.00;99447.53;2171333;81;21449;-81
2022/01/14 05:47:53;;;;;;;32.00;18.15;;;;;;;2.39;100.00;99472.91;2171278;82;21398;-85
2022/01/14 05:50:55;;;;;;;34.88;19.75;;;;;;;2.37;100.00;99448.91;2171140;82;21527;-82
2022/01/14 05:53:55;;;;;;;39.92;22.15;;;;;;;2.38;100.00;99457.02;2171446;81;21048;-84
2022/01/14 05:56:56;;;;;;;38.92;22.02;;;;;;;2.39;100.00;99459.98;2171210;82;21013;-86
2022/01/14 05:59:57;;;;;;;30.65;19.60;;;;;;;2.37;100.00;99452.78;2171066;81;21025;-83
2022/01/14 06:02:58;;;;;;;32.35;18.92;;;;;;;2.28;100.00;99460.72;2181698;81;20970;-83
2022/01/14 06:05:59;;;;;;;32.20;18.35;;;;;;;2.28;100.00;99465.89;2187902;81;21033;-84
2022/01/14 06:08:59;;;;;;;36.45;20.23;;;;;;;2.26;100.00;99455.66;2187972;81;21549;-84
2022/01/14 06:12:00;;;;;;;35.85;21.33;;;;;;;2.27;100.00;99445.69;2187756;81;20961;-85
2022/01/14 06:15:01;;;;;;;32.90;18.55;;;;;;;2.25;100.00;99448.85;2188013;81;21012;-84
2022/01/14 06:18:02;;;;;;;30.60;18.05;;;;;;;2.23;100.00;99444.27;2187599;81;21028;-85
2022/01/14 06:21:03;;;;;;;34.00;19.80;;;;;;;2.26;100.00;99446.63;2187537;81;21001;-84
2022/01/14 06:24:04;;;;;;;28.87;16.62;;;;;;;2.25;100.00;99432.52;2187756;81;20986;-85
2022/01/14 06:27:05;;;;;;;30.62;17.70;;;;;;;2.25;100.00;99403.62;2187955;81;21028;-86
2022/01/14 06:30:05;;;;;;;30.00;18.48;;;;;;;2.27;100.00;99417.73;2187824;81;21043;-86
2022/01/14 06:33:13;;;;;;;30.90;17.57;;;;;;;2.28;100.00;99414.20;2187848;81;21505;-86
2022/01/14 06:36:11;;;;;;;27.98;15.05;;;;;;;2.28;100.00;99409.03;2169379;81;21006;-87
2022/01/14 06:39:11;;;;;;;26.30;16.02;;;;;;;2.31;100.00;99407.55;2187818;81;21551;-86
2022/01/14 06:42:12;;;;;;;22.85;14.60;;;;;;;2.34;100.00;99405.20;2187939;81;21453;-86
2022/01/14 06:45:13;;;;;;;25.62;15.72;;;;;;;2.35;100.00;99410.25;2187651;81;21029;-86
2022/01/14 06:48:14;;;;;;;23.87;14.23;;;;;;;2.36;100.00;99395.09;2187627;81;21469;-86
2022/01/14 06:51:15;;;;;;;26.12;16.87;;;;;;;2.37;100.00;99392.05;2187824;81;21582;-86
2022/01/14 06:54:16;;;;;;;27.65;15.65;;;;;;;2.40;100.00;99402.19;2187808;81;21048;-86
2022/01/14 06:57:17;;;;;;;22.60;14.20;;;;;;;2.42;100.00;99393.38;2187739;81;21016;-86
2022/01/14 07:00:18;;;;;;;23.60;14.65;;;;;;;2.43;100.00;99396.31;2187529;81;21064;-86
2022/01/14 07:03:18;;;;;;;24.12;14.50;;;;;;;2.46;100.00;99401.25;2187589;81;20978;-87
2022/01/14 07:06:19;;;;;;;27.98;16.15;;;;;;;2.47;100.00;99382.69;2187847;81;21012;-86
2022/01/14 07:09:20;;;;;;;19.48;12.30;;;;;;;2.50;100.00;99370.38;2187717;81;20973;-84
2022/01/14 07:12:21;;;;;;;28.02;14.53;;;;;;;2.53;100.00;99362.86;2188191;81;21524;-83
2022/01/14 07:15:22;;;;;;;19.67;13.28;;;;;;;2.55;100.00;99359.69;2187886;81;20965;-84
2022/01/14 07:18:23;;;;;;;22.62;13.18;;;;;;;2.56;100.00;99348.40;2188032;81;20954;-88
2022/01/14 07:21:23;;;;;;;20.12;12.68;;;;;;;2.57;100.00;99344.91;2187974;81;21040;-85
2022/01/14 07:24:24;;;;;;;19.25;12.33;;;;;;;2.58;100.00;99337.50;2187841;81;20934;-86
2022/01/14 07:27:25;;;;;;;23.12;14.18;;;;;;;2.60;100.00;99338.20;2188206;81;20973;-85
2022/01/14 07:30:26;;;;;;;21.17;13.48;;;;;;;2.64;100.00;99337.50;2187980;81;21024;-86
2022/01/14 07:33:27;;;;;;;19.85;12.65;;;;;;;2.62;100.00;99330.33;2187807;81;21104;-81
2022/01/14 07:36:28;;;;;;;19.62;13.98;;;;;;;2.62;100.00;99313.52;2187851;81;21069;-82
2022/01/14 07:39:29;;;;;;;20.92;14.58;;;;;;;2.63;100.00;99337.14;2187995;81;21009;-83
2022/01/14 07:42:30;;;;;;;21.97;14.93;;;;;;;2.65;100.00;99326.21;2187999;81;20993;-79
2022/01/14 07:45:31;;;;;;;19.35;11.63;;;;;;;2.67;100.00;99316.60;2187903;81;21148;-82
2022/01/14 07:48:32;;;;;;;20.77;11.20;;;;;;;2.70;100.00;99316.36;2188188;81;21041;-84
2022/01/14 07:51:32;;;;;;;20.90;13.65;;;;;;;2.70;100.00;99307.31;2187916;81;20961;-82
2022/01/14 07:54:33;;;;;;;15.13;10.72;;;;;;;2.71;100.00;99289.56;2188066;81;21564;-82
2022/01/14 07:57:34;;;;;;;20.35;13.43;;;;;;;2.70;100.00;99297.79;2187981;81;20989;-82
2022/01/14 08:00:35;;;;;;;22.35;14.40;;;;;;;2.72;100.00;99315.77;2187953;81;21031;-83
2022/01/14 08:03:36;;;;;;;26.30;13.93;;;;;;;2.73;100.00;99294.96;2187877;81;21561;-85
2022/01/14 08:06:46;;;;;;;26.15;15.38;;;;;;;2.71;100.00;99327.05;2187463;81;21519;-86
2022/01/14 08:09:43;;;;;;;17.10;10.28;;;;;;;2.74;100.00;99291.91;2187435;81;21096;-81
2022/01/14 08:12:46;;;;;;;19.75;12.40;;;;;;;2.76;100.00;99301.22;2187904;81;21014;-84
2022/01/14 08:15:47;;;;;;;21.00;12.58;;;;;;;2.74;100.00;99286.30;2187812;81;21529;-82
2022/01/14 08:18:48;;;;;;;18.57;12.63;;;;;;;2.76;100.00;99297.81;2188191;81;21041;-82
2022/01/14 08:21:49;;;;;;;20.30;12.82;;;;;;;2.77;100.00;99284.75;2187787;81;21616;-83
2022/01/14 08:24:52;;;;;;;20.37;12.75;;;;;;;2.79;100.00;99288.05;2187513;81;21072;-83
2022/01/14 08:27:56;;;;;;;21.35;13.32;;;;;;;2.78;100.00;99277.34;2187899;81;21022;-86
2022/01/14 08:30:57;;;;;;;22.20;12.55;;;;;;;2.77;100.00;99283.46;2187766;81;22043;-84
2022/01/14 08:34:00;;;;;;;21.55;13.13;;;;;;;2.79;100.00;99262.65;2187085;81;21057;-85
2022/01/14 08:37:00;;;;;;;20.48;14.18;;;;;;;2.80;100.00;99285.81;2187707;81;21541;-84
2022/01/14 08:40:01;;;;;;;23.38;14.10;;;;;;;2.77;100.00;99299.45;2187634;81;21177;-83
2022/01/14 08:43:02;;;;;;;22.75;13.62;;;;;;;2.82;100.00;99280.52;2187665;81;20965;-83
2022/01/14 08:46:04;;;;;;;20.72;14.07;;;;;;;2.87;100.00;99269.36;2170462;81;21019;-83
2022/01/14 08:49:05;;;;;;;24.75;13.88;;;;;;;2.85;100.00;99271.25;2187729;81;21489;-85
2022/01/14 08:52:06;;;;;;;21.35;13.48;;;;;;;2.89;100.00;99270.53;2187845;81;21065;-83
2022/01/14 08:55:07;;;;;;;19.82;12.98;;;;;;;2.95;100.00;99268.78;2188261;81;21364;-83
2022/01/14 08:58:09;;;;;;;27.40;15.28;;;;;;;2.97;100.00;99298.76;2187780;81;21028;-85
2022/01/14 09:01:10;;;;;;;29.40;16.15;;;;;;;2.98;100.00;99285.34;2187853;81;21540;-86
2022/01/14 09:04:11;;;;;;;21.87;12.80;;;;;;;3.03;100.00;99269.02;2187761;81;21080;-85
2022/01/14 09:07:12;;;;;;;23.80;14.45;;;;;;;3.05;100.00;99259.36;2187920;81;21057;-86
2022/01/14 09:10:13;;;;;;;24.02;14.30;;;;;;;3.05;100.00;99256.78;2187855;81;21020;-83
2022/01/14 09:13:15;;;;;;;18.87;13.00;;;;;;;3.05;100.00;99264.54;2187674;81;21494;-85
2022/01/14 09:16:18;;;;;;;24.47;14.93;;;;;;;3.06;100.00;99279.94;2187889;81;21529;-86
2022/01/14 09:19:20;;;;;;;22.85;14.63;;;;;;;3.05;100.00;99278.77;2188260;81;21132;-85
2022/01/14 09:22:22;;;;;;;19.90;12.68;;;;;;;3.03;100.00;99265.95;2188183;81;21005;-82
2022/01/14 09:25:23;;;;;;;21.35;13.55;;;;;;;3.02;100.00;99268.20;2187885;81;21047;-83
2022/01/14 09:28:24;;;;;;;21.50;12.80;;;;;;;3.04;100.00;99268.08;2187935;81;20962;-83
2022/01/14 09:31:25;;;;;;;20.40;13.60;;;;;;;3.04;100.00;99268.08;2188037;81;20982;-82
2022/01/14 09:34:25;;;;;;;24.23;14.58;;;;;;;3.01;100.00;99266.99;2187933;81;21121;-82
2022/01/14 09:37:26;;;;;;;22.00;13.80;;;;;;;2.97;100.00;99262.54;2187882;81;21528;-82
2022/01/14 09:40:28;;;;;;;19.98;13.80;;;;;;;2.93;100.00;99240.92;2187798;81;21001;-82
2022/01/14 09:43:31;;;;;;;21.30;13.30;;;;;;;2.94;100.00;99239.50;2187948;81;20942;-82
2022/01/14 09:46:31;;;;;;;19.80;13.40;;;;;;;2.96;100.00;99226.44;2187893;81;21561;-82
2022/01/14 09:49:32;;;;;;;18.98;12.05;;;;;;;2.96;100.00;99231.14;2187782;81;20998;-82
2022/01/14 09:52:33;;;;;;;20.25;12.60;;;;;;;2.96;100.00;99225.15;2187902;81;21061;-81
2022/01/14 09:55:37;;;;;;;21.07;12.10;;;;;;;2.95;100.00;99216.57;2187857;81;20985;-82
2022/01/14 09:58:40;;;;;;;19.57;12.35;;;;;;;2.97;100.00;99210.80;2187394;81;21596;-82
2022/01/14 10:01:39;;;;;;;18.27;12.10;;;;;;;3.01;100.00;99190.20;2187526;81;20993;-81
2022/01/14 10:04:40;;;;;;;21.00;13.45;;;;;;;3.08;100.00;99207.37;2174020;81;21003;-82
2022/01/14 10:07:41;;;;;;;18.07;12.33;;;;;;;3.10;100.00;99212.77;2171788;81;21016;-82
2022/01/14 10:10:42;;;;;;;19.20;11.88;;;;;;;3.11;100.00;99195.03;2171295;81;20994;-82
2022/01/14 10:13:45;;;;;;;21.52;12.80;;;;;;;3.09;100.00;99196.08;2171308;82;22098;-83
2022/01/14 10:16:45;;;;;;;18.37;11.63;;;;;;;3.09;100.00;99202.54;2171071;81;21533;-83
2022/01/14 10:19:46;;;;;;;23.00;13.15;;;;;;;3.10;100.00;99193.83;2171432;82;20987;-83
2022/01/14 10:22:47;;;;;;;13.58;10.65;;;;;;;3.09;100.00;99195.60;2171390;81;20994;-82
2022/01/14 10:25:48;;;;;;;17.48;11.93;;;;;;;3.11;100.00;99185.16;2171171;81;21542;-83
2022/01/14 10:28:49;;;;;;;17.25;10.50;;;;;;;3.10;100.00;99178.31;2171291;81;20970;-82
2022/01/14 10:31:49;;;;;;;20.10;11.88;;;;;;;3.06;100.00;99189.86;2171188;81;21046;-81
2022/01/14 10:34:50;;;;;;;17.90;11.43;;;;;;;3.08;100.00;99156.91;2171403;81;20958;-82
2022/01/14 10:37:51;;;;;;;19.45;12.45;;;;;;;3.11;100.00;99147.16;2171518;81;21081;-80
2022/01/14 10:40:52;;;;;;;20.02;12.20;;;;;;;3.12;100.00;99160.92;2171818;82;20971;-81
2022/01/14 10:43:53;;;;;;;17.20;11.60;;;;;;;3.16;100.00;99164.89;2171235;82;21010;-80
2022/01/14 10:46:54;;;;;;;21.45;11.90;;;;;;;3.18;100.00;99149.24;2171201;82;20931;-81
2022/01/14 10:49:55;;;;;;;15.38;10.63;;;;;;;3.18;100.00;99150.06;2171103;81;21065;-82
2022/01/14 10:52:55;;;;;;;16.05;11.05;;;;;;;3.18;100.00;99151.83;2171186;81;21070;-81
2022/01/14 10:55:56;;;;;;;14.35;10.78;;;;;;;3.15;100.00;99160.67;2170996;81;21536;-81
2022/01/14 10:58:59;;;;;;;17.07;12.58;;;;;;;3.12;100.00;99131.98;2170862;82;21077;-80
2022/01/14 11:02:00;;;;;;;18.50;12.73;;;;;;;3.12;100.00;99139.75;2171356;81;20990;-80
2022/01/14 11:05:00;;;;;;;20.12;12.65;;;;;;;3.14;100.00;99130.09;2185083;81;21017;-81
2022/01/14 11:08:02;;;;;;;18.20;12.40;;;;;;;3.14;100.00;99127.50;2187968;81;20977;-82
2022/01/14 11:11:02;;;;;;;17.75;11.12;;;;;;;3.17;100.00;99119.95;2187680;81;21073;-81
2022/01/14 11:14:03;;;;;;;15.78;10.78;;;;;;;3.19;100.00;99125.00;2187746;81;21036;-80
2022/01/14 11:17:08;;;;;;;20.70;13.15;;;;;;;3.19;100.00;99126.30;2187558;81;22841;-84
2022/01/14 11:20:08;;;;;;;20.48;14.20;;;;;;;3.18;100.00;99117.72;2187219;81;21081;-81
2022/01/14 11:23:14;;;;;;;22.25;14.30;;;;;;;3.17;100.00;99110.90;2187666;81;21446;-81
2022/01/14 11:26:16;;;;;;;21.45;13.55;;;;;;;3.18;100.00;99108.66;2187848;81;21538;-82
2022/01/14 11:29:17;;;;;;;18.70;11.12;;;;;;;3.14;100.00;99095.63;2187642;81;21044;-81
2022/01/14 11:32:18;;;;;;;21.02;13.72;;;;;;;3.15;100.00;99106.33;2187808;81;21101;-82
2022/01/14 11:35:19;;;;;;;22.25;13.53;;;;;;;3.15;100.00;99099.86;2187677;81;21480;-82
2022/01/14 11:38:19;;;;;;;19.65;14.30;;;;;;;3.13;100.00;99095.28;2187811;81;21069;-82
2022/01/14 11:41:20;;;;;;;19.60;13.25;;;;;;;3.12;100.00;99102.23;2187615;81;21010;-82
2022/01/14 11:44:23;;;;;;;20.95;13.78;;;;;;;3.12;100.00;99102.23;2188310;81;20981;-81
2022/01/14 11:47:24;;;;;;;21.00;13.65;;;;;;;3.11;100.00;99111.41;2187674;81;21044;-81
2022/01/14 11:50:25;;;;;;;21.50;13.10;;;;;;;3.12;100.00;99110.46;2188511;81;21045;-82
2022/01/14 11:53:25;;;;;;;23.22;14.63;;;;;;;3.11;100.00;99100.59;2188076;81;21049;-81
2022/01/14 11:56:26;;;;;;;17.55;11.85;;;;;;;3.12;100.00;99097.52;2187613;81;21565;-82
2022/01/14 11:59:27;;;;;;;23.35;14.23;;;;;;;3.10;100.00;99110.56;2187885;81;21025;-81
2022/01/14 12:02:28;;;;;;;22.13;13.90;;;;;;;3.11;100.00;99113.52;2187959;81;20965;-81
2022/01/14 12:05:29;;;;;;;22.42;15.38;;;;;;;3.13;100.00;99096.58;2172602;81;21034;-81
2022/01/14 12:08:30;;;;;;;22.37;12.68;;;;;;;3.17;100.00;99100.55;2171397;81;20962;-82
2022/01/14 12:11:31;;;;;;;25.27;15.32;;;;;;;3.21;100.00;99095.97;2171089;81;21029;-82
2022/01/14 12:14:33;;;;;;;20.30;13.32;;;;;;;3.24;100.00;99100.89;2171200;81;21105;-82
2022/01/14 12:17:34;;;;;;;22.80;13.50;;;;;;;3.26;100.00;99109.34;2171310;82;21062;-82
2022/01/14 12:20:35;;;;;;;22.95;13.78;;;;;;;3.25;100.00;99114.99;2171444;82;20981;-83
2022/01/14 12:23:36;;;;;;;21.00;16.10;;;;;;;3.25;100.00;99106.41;2171159;81;20966;-82
2022/01/14 12:26:37;;;;;;;18.87;12.73;;;;;;;3.28;100.00;99100.50;2171290;81;20982;-82
2022/01/14 12:29:37;;;;;;;20.75;12.98;;;;;;;3.31;100.00;99094.27;2171193;82;21071;-82
2022/01/14 12:32:38;;;;;;;18.75;13.05;;;;;;;3.33;100.00;99080.26;2171396;81;20955;-83
2022/01/14 12:35:39;;;;;;;22.90;14.13;;;;;;;3.39;100.00;99085.42;2171512;82;20994;-82
2022/01/14 12:38:40;;;;;;;19.67;12.93;;;;;;;3.42;100.00;99087.75;2171580;81;21014;-83
2022/01/14 12:41:41;;;;;;;20.70;13.13;;;;;;;3.47;100.00;99088.66;2171396;82;21001;-82
2022/01/14 12:44:43;;;;;;;22.48;14.35;;;;;;;3.47;100.00;99084.77;2171190;81;20959;-83
2022/01/14 12:47:44;;;;;;;16.82;12.25;;;;;;;3.50;100.00;99093.13;2171450;82;21504;-82
2022/01/14 12:50:45;;;;;;;23.47;13.85;;;;;;;3.52;100.00;99078.75;2171302;82;20966;-84
2022/01/14 12:53:47;;;;;;;18.75;11.83;;;;;;;3.53;100.00;99088.98;2171327;81;21005;-84
2022/01/14 12:56:50;;;;;;;17.05;11.18;;;;;;;3.57;100.00;99074.03;2170528;82;21042;-84
2022/01/14 12:59:51;;;;;;;16.20;11.55;;;;;;;3.58;100.00;99079.55;2171184;82;21066;-80
2022/01/14 13:02:52;;;;;;;15.30;10.25;;;;;;;3.58;100.00;99067.91;2171340;81;20989;-81
2022/01/14 13:05:53;;;;;;;15.78;10.70;;;;;;;3.63;100.00;99078.21;2171167;82;21041;-81
2022/01/14 13:08:54;;;;;;;17.32;11.70;;;;;;;3.63;100.00;99069.63;2171276;82;20974;-80
2022/01/14 13:11:55;;;;;;;18.12;12.95;;;;;;;3.59;100.00;99080.72;2171121;81;21508;-79
2022/01/14 13:15:01;;;;;;;17.80;11.70;;;;;;;3.60;100.00;99069.41;2171167;81;21473;-81
2022/01/14 13:18:08;;;;;;;16.10;10.93;;;;;;;3.60;100.00;99059.53;2171296;81;21085;-81
2022/01/14 13:21:04;;;;;;;14.45;10.23;;;;;;;3.63;100.00;99073.51;2170941;81;21050;-83
2022/01/14 13:24:05;;;;;;;15.05;10.28;;;;;;;3.59;100.00;99061.30;2171298;82;21552;-80
2022/01/14 13:27:06;;;;;;;13.85;9.63;;;;;;;3.61;100.00;99059.88;2171309;81;20955;-81
2022/01/14 13:30:07;;;;;;;14.43;11.45;;;;;;;3.61;100.00;99045.63;2171161;82;21018;-80
2022/01/14 13:33:08;;;;;;;13.13;9.53;;;;;;;3.60;100.00;99037.52;2171244;82;21546;-82
2022/01/14 13:36:09;;;;;;;11.97;8.80;;;;;;;3.65;100.00;99047.00;2171216;81;21029;-81
2022/01/14 13:39:10;;;;;;;13.80;10.68;;;;;;;3.71;100.00;99043.91;2171163;82;21037;-81
2022/01/14 13:42:10;;;;;;;12.37;10.75;;;;;;;3.68;100.00;99042.88;2171156;82;21055;-80
2022/01/14 13:45:15;;;;;;;15.32;10.10;;;;;;;3.67;100.00;99052.90;2171301;82;21049;-81
2022/01/14 13:48:27;;;;;;;16.23;10.68;;;;;;;3.68;100.00;99063.60;2170988;81;21092;-81
2022/01/14 13:51:30;;;;;;;10.05;8.60;;;;;;;3.67;100.00;99065.84;2170314;81;20974;-80
2022/01/14 13:54:31;;;;;;;10.75;7.97;;;;;;;3.69;100.00;99071.23;2126999;83;21088;-82
2022/01/14 13:57:32;;;;;;;14.18;9.03;;;;;;;3.69;100.00;99056.17;2126614;84;20946;-87
2022/01/14 14:00:33;;;;;;;11.43;8.23;;;;;;;3.67;100.00;99073.14;2126607;84;20969;-86
2022/01/14 14:03:41;;;;;;;10.40;8.15;;;;;;;3.68;100.00;99064.42;2126805;83;21064;-86
2022/01/14 14:06:55;;;;;;;10.58;7.78;;;;;;;3.67;100.00;99083.50;2125281;83;21577;-85
2022/01/14 14:10:06;;;;;;;12.33;9.18;;;;;;;3.67;100.00;99078.80;2170477;81;20994;-84